Time;durP1;ratioP1;P1;durP2;ratioP2;P2;SDS_P1;SDS_P2;PMS_P1;PMS_P2;Temp;Humidity;BMP_temperature;BMP_pressure;BME280_temperature;BME280_humidity;BME280_pressure;Samples;Min_cycle;Max_cycle;Signal;HPM_P1;HPM_P2
2022/10/19 00:01:26;;;;;;;1.23;0.70;;;;;;;9.37;77.19;99766.75;5068993;28;20416;-57
2022/10/19 00:03:54;;;;;;;0.50;0.50;;;;;;;9.35;77.50;99763.44;5069173;28;20618;-62
2022/10/19 00:06:24;;;;;;;0.17;0.17;;;;;;;9.33;77.52;99765.25;5069229;28;20724;-62
2022/10/19 00:08:52;;;;;;;0.30;0.30;;;;;;;9.29;77.51;99762.88;5072591;28;20206;-58
2022/10/19 00:11:20;;;;;;;1.37;1.00;;;;;;;9.24;77.68;99754.66;5072557;28;20238;-58
2022/10/19 00:13:47;;;;;;;0.23;0.23;;;;;;;9.24;77.54;99749.53;5072588;28;20595;-61
2022/10/19 00:16:16;;;;;;;0.50;0.50;;;;;;;9.16;78.09;99755.97;5072429;28;20222;-62
2022/10/19 00:18:44;;;;;;;0.67;0.50;;;;;;;9.13;78.33;99756.97;5072469;28;20230;-62
2022/10/19 00:21:12;;;;;;;0.43;0.43;;;;;;;9.13;78.35;99746.75;5072715;28;20225;-58
2022/10/19 00:23:39;;;;;;;0.30;0.30;;;;;;;9.06;78.59;99740.38;5072409;28;20238;-62
2022/10/19 00:26:07;;;;;;;0.87;0.87;;;;;;;8.96;78.86;99744.31;5072850;28;20218;-58
2022/10/19 00:28:35;;;;;;;0.23;0.23;;;;;;;8.94;79.25;99735.97;5072542;28;20214;-57
2022/10/19 00:31:04;;;;;;;0.50;0.50;;;;;;;8.94;78.01;99731.69;5072596;28;20238;-58
2022/10/19 00:33:30;;;;;;;0.37;0.37;;;;;;;8.95;77.10;99722.28;5072409;28;20199;-62
2022/10/19 00:35:57;;;;;;;0.67;0.67;;;;;;;8.89;76.71;99730.28;5072655;28;20229;-62
2022/10/19 00:38:24;;;;;;;1.03;0.50;;;;;;;8.88;76.34;99726.91;5072168;28;20210;-62
2022/10/19 00:40:51;;;;;;;0.40;0.40;;;;;;;8.83;76.48;99724.59;5071935;28;20226;-57
2022/10/19 00:43:20;;;;;;;0.53;0.53;;;;;;;8.86;75.81;99718.53;5072088;28;20238;-57
2022/10/19 00:45:49;;;;;;;0.63;0.63;;;;;;;8.83;75.76;99714.41;5072105;28;20225;-57
2022/10/19 00:48:26;;;;;;;0.23;0.23;;;;;;;8.80;75.73;99712.03;5072123;28;20202;-62
2022/10/19 00:50:56;;;;;;;0.57;0.57;;;;;;;8.73;75.61;99707.38;5071654;28;20223;-57
2022/10/19 00:53:26;;;;;;;0.57;0.57;;;;;;;8.65;75.88;99695.03;5072212;28;20588;-58
2022/10/19 00:55:52;;;;;;;1.43;0.70;;;;;;;8.58;75.87;99706.44;5071642;28;20219;-62
2022/10/19 00:58:19;;;;;;;0.60;0.60;;;;;;;8.51;76.39;99697.50;5072055;28;20741;-62
2022/10/19 01:00:48;;;;;;;0.27;0.27;;;;;;;8.47;76.37;99690.94;5071599;28;20597;-57
2022/10/19 01:03:14;;;;;;;0.30;0.30;;;;;;;8.45;76.53;99692.72;5071933;28;20206;-62
2022/10/19 01:05:42;;;;;;;0.67;0.67;;;;;;;8.46;75.85;99686.72;5071203;28;20610;-62
2022/10/19 01:08:10;;;;;;;0.30;0.30;;;;;;;8.37;76.07;99685.47;5071368;28;20210;-62
2022/10/19 01:10:45;;;;;;;0.40;0.40;;;;;;;8.27;76.39;99669.03;5071631;28;20257;-62
2022/10/19 01:13:24;;;;;;;0.40;0.40;;;;;;;8.22;76.77;99679.47;5071762;28;20617;-62
2022/10/19 01:16:00;;;;;;;0.40;0.40;;;;;;;8.11;76.97;99666.47;5071299;28;20219;-57
2022/10/19 01:18:33;;;;;;;0.50;0.50;;;;;;;8.03;77.06;99676.22;5071495;28;20210;-57
2022/10/19 01:21:16;;;;;;;0.20;0.20;;;;;;;7.99;77.22;99665.38;5071403;28;20218;-58
2022/10/19 01:24:16;;;;;;;0.30;0.30;;;;;;;7.92;77.60;99664.88;5071124;28;20226;-57
2022/10/19 01:27:06;;;;;;;0.10;0.10;;;;;;;7.88;77.66;99663.41;5071273;28;20194;-62
2022/10/19 01:29:56;;;;;;;0.30;0.30;;;;;;;7.87;77.82;99669.38;5071002;28;20246;-57
2022/10/19 01:32:30;;;;;;;0.90;0.83;;;;;;;7.81;78.11;99662.06;5071361;28;20209;-62
2022/10/19 01:35:07;;;;;;;0.50;0.50;;;;;;;7.70;78.55;99659.25;5070893;28;20845;-62
2022/10/19 01:37:40;;;;;;;0.60;0.60;;;;;;;7.63;79.40;99652.84;5071176;28;20194;-57
2022/10/19 01:40:12;;;;;;;0.43;0.43;;;;;;;7.66;79.60;99657.78;5071211;28;20218;-57
2022/10/19 01:42:45;;;;;;;0.43;0.43;;;;;;;7.64;80.05;99657.84;5070997;28;20195;-62
2022/10/19 01:45:19;;;;;;;1.40;0.60;;;;;;;7.59;80.31;99656.44;5070608;28;20291;-57
2022/10/19 01:47:53;;;;;;;0.40;0.40;;;;;;;7.61;80.15;99655.44;5071088;28;20717;-62
2022/10/19 01:50:27;;;;;;;0.60;0.60;;;;;;;7.62;80.04;99656.28;5070587;28;20225;-57
2022/10/19 01:52:55;;;;;;;0.70;0.30;;;;;;;7.62;79.97;99651.19;5070803;28;20205;-57
2022/10/19 01:55:24;;;;;;;0.20;0.20;;;;;;;7.62;80.24;99661.34;5070647;28;20228;-62
2022/10/19 01:57:57;;;;;;;0.20;0.20;;;;;;;7.61;79.96;99658.00;5070548;28;20583;-57
2022/10/19 02:00:27;;;;;;;0.50;0.50;;;;;;;7.61;79.89;99659.72;5070830;28;20214;-62
2022/10/19 02:02:55;;;;;;;0.37;0.37;;;;;;;7.58;79.93;99659.88;5070635;28;20605;-57
2022/10/19 02:05:28;;;;;;;0.20;0.20;;;;;;;7.54;79.85;99655.88;5070113;28;20230;-62
2022/10/19 02:08:00;;;;;;;0.30;0.30;;;;;;;7.50;79.96;99662.81;5070560;28;20600;-62
2022/10/19 02:10:29;;;;;;;0.50;0.50;;;;;;;7.32;80.65;99654.38;5070292;28;20231;-57
2022/10/19 02:12:58;;;;;;;0.30;0.30;;;;;;;7.29;80.73;99644.34;5070707;28;20663;-57
2022/10/19 02:15:28;;;;;;;1.10;0.87;;;;;;;7.34;80.56;99647.50;5070423;28;20215;-62
2022/10/19 02:17:59;;;;;;;0.50;0.50;;;;;;;7.37;80.42;99652.44;5070492;28;20209;-57
2022/10/19 02:20:28;;;;;;;0.40;0.40;;;;;;;7.34;80.66;99652.59;5070115;28;20709;-57
2022/10/19 02:22:55;;;;;;;0.20;0.20;;;;;;;7.28;80.84;99647.81;5070176;28;20194;-62
2022/10/19 02:25:23;;;;;;;0.53;0.33;;;;;;;7.24;81.16;99646.28;5069954;28;20242;-57
2022/10/19 02:27:49;;;;;;;0.40;0.30;;;;;;;7.18;81.61;99642.34;5070177;28;20198;-57
2022/10/19 02:30:20;;;;;;;0.63;0.50;;;;;;;7.21;81.28;99641.38;5069516;28;20582;-58
2022/10/19 02:32:50;;;;;;;0.40;0.40;;;;;;;7.12;81.68;99632.47;5070479;28;20210;-62
2022/10/19 02:35:17;;;;;;;0.60;0.60;;;;;;;7.07;81.82;99631.03;5069877;28;20221;-62
2022/10/19 02:37:44;;;;;;;0.33;0.33;;;;;;;6.99;82.24;99631.44;5070075;28;20202;-57
2022/10/19 02:40:13;;;;;;;0.40;0.40;;;;;;;6.98;82.23;99643.34;5069722;28;20237;-62
2022/10/19 02:42:43;;;;;;;0.20;0.20;;;;;;;7.04;82.12;99637.13;5070172;28;20194;-57
2022/10/19 02:45:15;;;;;;;0.73;0.70;;;;;;;7.02;82.27;99641.47;5069798;28;20265;-57
2022/10/19 02:47:47;;;;;;;0.20;0.20;;;;;;;7.02;82.12;99642.28;5070050;28;20198;-61
2022/10/19 02:50:19;;;;;;;0.40;0.40;;;;;;;7.03;82.12;99643.91;5070031;28;20219;-62
2022/10/19 02:52:46;;;;;;;0.83;0.83;;;;;;;7.03;81.88;99646.44;5070325;28;20203;-57
2022/10/19 02:55:13;;;;;;;0.30;0.30;;;;;;;7.03;82.06;99643.91;5069925;28;20223;-61
2022/10/19 02:57:39;;;;;;;0.83;0.70;;;;;;;6.98;82.06;99643.34;5069916;28;20213;-62
2022/10/19 03:00:08;;;;;;;0.23;0.23;;;;;;;7.00;82.20;99638.97;5069966;28;20210;-57
2022/10/19 03:02:35;;;;;;;0.57;0.57;;;;;;;7.01;82.09;99640.63;5070000;28;20675;-62
2022/10/19 03:05:02;;;;;;;0.20;0.20;;;;;;;7.00;82.37;99635.63;5069526;28;20237;-62
2022/10/19 03:07:30;;;;;;;0.30;0.30;;;;;;;7.06;82.16;99637.03;5069788;28;20225;-57
2022/10/19 03:09:57;;;;;;;0.53;0.53;;;;;;;6.99;82.71;99629.72;5069405;28;20229;-57
2022/10/19 03:12:24;;;;;;;0.87;0.60;;;;;;;6.97;82.26;99634.03;5069829;28;20195;-62
2022/10/19 03:14:51;;;;;;;0.60;0.60;;;;;;;7.00;82.10;99633.88;5069452;28;20218;-57
2022/10/19 03:17:18;;;;;;;0.87;0.87;;;;;;;6.98;82.13;99630.63;5069687;28;20663;-57
2022/10/19 03:19:44;;;;;;;0.50;0.50;;;;;;;7.02;81.57;99626.22;5069236;28;20222;-61
2022/10/19 03:22:13;;;;;;;0.30;0.30;;;;;;;6.97;81.39;99620.50;5069639;28;20679;-57
2022/10/19 03:24:41;;;;;;;0.30;0.30;;;;;;;6.91;81.94;99614.00;5069652;28;20238;-59
2022/10/19 03:27:08;;;;;;;0.10;0.10;;;;;;;6.91;81.99;99614.00;5069429;28;20198;-57
2022/10/19 03:29:35;;;;;;;0.33;0.33;;;;;;;6.88;82.33;99619.25;5069414;28;20288;-62
2022/10/19 03:32:01;;;;;;;2.53;1.33;;;;;;;6.84;82.41;99627.91;5069655;28;20195;-59
2022/10/19 03:34:28;;;;;;;0.20;0.20;;;;;;;6.87;82.44;99619.34;5069475;28;20221;-61
2022/10/19 03:36:55;;;;;;;0.27;0.27;;;;;;;6.92;82.16;99622.44;5069364;28;20217;-62
2022/10/19 03:39:22;;;;;;;2.43;0.50;;;;;;;6.90;81.99;99620.00;5069461;28;20227;-62
2022/10/19 03:41:50;;;;;;;0.37;0.37;;;;;;;6.93;81.92;99613.94;5069743;28;20206;-62
2022/10/19 03:44:17;;;;;;;0.60;0.60;;;;;;;6.87;81.89;99615.06;5072740;28;20245;-62
2022/10/19 03:46:44;;;;;;;1.33;0.60;;;;;;;6.83;81.98;99615.28;5073343;28;20609;-57
2022/10/19 03:49:11;;;;;;;0.23;0.23;;;;;;;6.82;82.03;99609.38;5073075;28;20225;-62
2022/10/19 03:51:38;;;;;;;0.10;0.10;;;;;;;6.78;82.26;99602.81;5073386;28;20596;-57
2022/10/19 03:54:07;;;;;;;2.93;0.97;;;;;;;6.72;82.23;99605.63;5073072;28;20198;-57
2022/10/19 03:56:35;;;;;;;0.20;0.20;;;;;;;6.71;82.44;99601.44;5072942;28;20203;-62
2022/10/19 03:59:05;;;;;;;0.83;0.40;;;;;;;6.64;82.54;99605.19;5072778;28;20717;-62
2022/10/19 04:01:34;;;;;;;0.40;0.40;;;;;;;6.57;82.86;99599.56;5073008;28;20233;-57
2022/10/19 04:04:03;;;;;;;0.30;0.30;;;;;;;6.51;82.82;99598.13;5072991;28;20195;-57
2022/10/19 04:06:33;;;;;;;0.40;0.40;;;;;;;6.49;83.00;99597.41;5072753;28;20588;-57
2022/10/19 04:09:00;;;;;;;0.40;0.40;;;;;;;6.42;83.04;99593.47;5072916;28;20194;-62
2022/10/19 04:11:29;;;;;;;0.60;0.60;;;;;;;6.31;83.65;99583.00;5072559;28;20207;-61
2022/10/19 04:13:57;;;;;;;0.23;0.23;;;;;;;6.31;83.67;99577.91;5072808;28;20203;-62
2022/10/19 04:16:27;;;;;;;0.10;0.10;;;;;;;6.27;83.79;99577.25;5072381;28;20249;-57
2022/10/19 04:18:54;;;;;;;0.30;0.30;;;;;;;6.26;83.71;99569.72;5072625;28;20221;-58
2022/10/19 04:21:23;;;;;;;0.40;0.40;;;;;;;6.18;84.09;99572.59;5072391;28;20619;-57
2022/10/19 04:23:51;;;;;;;0.40;0.40;;;;;;;6.17;84.07;99575.19;5072729;28;20225;-62
2022/10/19 04:26:19;;;;;;;0.40;0.40;;;;;;;6.12;84.31;99568.63;5072082;28;20230;-57
2022/10/19 04:28:45;;;;;;;0.60;0.60;;;;;;;6.15;84.35;99574.47;5072373;28;20206;-61
2022/10/19 04:31:13;;;;;;;0.53;0.43;;;;;;;6.10;84.27;99575.47;5072411;28;20242;-57
2022/10/19 04:33:41;;;;;;;0.33;0.33;;;;;;;6.08;84.31;99577.28;5072384;28;20206;-61
2022/10/19 04:36:10;;;;;;;0.10;0.10;;;;;;;6.06;84.33;99574.00;5072090;28;20225;-57
2022/10/19 04:38:38;;;;;;;0.40;0.40;;;;;;;6.07;84.38;99575.63;5072235;28;20632;-62
2022/10/19 04:41:08;;;;;;;0.30;0.30;;;;;;;6.02;84.56;99574.19;5071919;28;20218;-57
2022/10/19 04:43:35;;;;;;;2.73;0.83;;;;;;;5.98;84.83;99570.97;5072185;28;20195;-61
2022/10/19 04:46:06;;;;;;;0.10;0.10;;;;;;;5.97;84.84;99579.50;5071986;28;20626;-58
2022/10/19 04:48:35;;;;;;;0.37;0.37;;;;;;;5.92;84.86;99573.75;5072353;28;20198;-57
2022/10/19 04:51:04;;;;;;;0.10;0.10;;;;;;;5.91;85.07;99569.59;5071938;28;20226;-57
2022/10/19 04:53:32;;;;;;;0.23;0.23;;;;;;;5.89;85.05;99577.25;5071820;28;20226;-57
2022/10/19 04:55:59;;;;;;;0.20;0.20;;;;;;;5.92;84.84;99576.31;5071725;28;20218;-61
2022/10/19 04:58:26;;;;;;;0.50;0.30;;;;;;;5.92;84.87;99571.22;5071884;28;20589;-62
2022/10/19 05:00:52;;;;;;;0.53;0.53;;;;;;;5.92;85.04;99571.22;5071527;28;20604;-57
2022/10/19 05:03:19;;;;;;;0.37;0.37;;;;;;;5.95;84.75;99565.22;5071752;28;20207;-57
2022/10/19 05:05:46;;;;;;;0.23;0.23;;;;;;;5.91;84.92;99572.13;5071479;28;20234;-57
2022/10/19 05:08:14;;;;;;;0.10;0.10;;;;;;;5.90;84.96;99578.91;5071523;28;20199;-61
2022/10/19 05:10:41;;;;;;;0.30;0.30;;;;;;;5.91;85.08;99569.59;5071512;28;20458;-61
2022/10/19 05:13:08;;;;;;;1.17;1.07;;;;;;;5.92;84.98;99571.22;5071637;28;20199;-62
2022/10/19 05:15:35;;;;;;;1.13;0.60;;;;;;;5.90;84.86;99578.91;5071791;28;20223;-62
2022/10/19 05:18:01;;;;;;;0.27;0.27;;;;;;;5.98;84.59;99573.50;5071630;28;20662;-61
2022/10/19 05:20:28;;;;;;;0.63;0.63;;;;;;;5.99;84.41;99570.09;5071118;28;20405;-61
2022/10/19 05:22:55;;;;;;;0.40;0.40;;;;;;;5.96;84.59;99577.00;5071389;28;20199;-57
2022/10/19 05:25:23;;;;;;;0.70;0.50;;;;;;;5.98;84.67;99583.66;5070938;28;20620;-57
2022/10/19 05:27:53;;;;;;;0.20;0.20;;;;;;;6.01;84.91;99575.91;5071441;28;20589;-57
2022/10/19 05:30:21;;;;;;;0.23;0.23;;;;;;;6.04;84.88;99580.84;5071334;28;20222;-62
2022/10/19 05:32:48;;;;;;;0.37;0.37;;;;;;;6.12;85.21;99583.88;5071541;28;20260;-61
2022/10/19 05:35:15;;;;;;;0.80;0.73;;;;;;;6.15;85.20;99577.00;5071146;28;20214;-62
2022/10/19 05:37:42;;;;;;;0.30;0.30;;;;;;;6.23;85.11;99580.84;5071284;28;20256;-57
2022/10/19 05:40:10;;;;;;;0.20;0.20;;;;;;;6.32;85.23;99574.50;5070850;28;20229;-62
2022/10/19 05:42:38;;;;;;;0.10;0.10;;;;;;;6.40;85.35;99572.44;5071005;28;20195;-62
2022/10/19 05:45:06;;;;;;;0.27;0.27;;;;;;;6.57;84.46;99569.91;5070917;28;20231;-62
2022/10/19 05:47:34;;;;;;;2.47;0.27;;;;;;;6.85;83.51;99578.72;5070927;28;20191;-62
2022/10/19 05:50:01;;;;;;;0.57;0.43;;;;;;;7.10;83.38;99568.19;5071018;28;20222;-62
2022/10/19 05:52:28;;;;;;;0.83;0.83;;;;;;;7.39;81.80;99573.50;5070751;28;20194;-57
2022/10/19 05:54:57;;;;;;;0.40;0.40;;;;;;;7.74;80.28;99579.31;5070961;28;20226;-62
2022/10/19 05:57:24;;;;;;;0.27;0.27;;;;;;;8.00;78.60;99572.00;5071085;28;20199;-62
2022/10/19 05:59:55;;;;;;;0.37;0.37;;;;;;;8.35;78.15;99570.09;5070495;28;20226;-57
2022/10/19 06:02:22;;;;;;;1.13;0.70;;;;;;;8.71;76.81;99566.41;5070782;28;20199;-58
2022/10/19 06:04:49;;;;;;;0.10;0.10;;;;;;;9.07;75.46;99568.56;5069568;28;20219;-57
2022/10/19 06:07:15;;;;;;;0.63;0.43;;;;;;;9.47;74.03;99568.75;5070364;28;20198;-63
2022/10/19 06:09:42;;;;;;;0.90;0.60;;;;;;;9.79;72.54;99568.56;5070315;28;20250;-62
2022/10/19 06:12:09;;;;;;;1.60;0.50;;;;;;;10.05;71.61;99572.88;5071071;28;20574;-57
2022/10/19 06:14:36;;;;;;;0.10;0.10;;;;;;;10.46;70.53;99569.47;5070295;28;20219;-58
2022/10/19 06:17:05;;;;;;;0.57;0.37;;;;;;;10.83;69.09;99579.88;5070132;28;20214;-57
2022/10/19 06:19:32;;;;;;;1.33;0.60;;;;;;;11.21;68.32;99568.84;5070474;28;20257;-62
2022/10/19 06:21:59;;;;;;;0.30;0.30;;;;;;;11.56;66.76;99585.19;5070151;28;20199;-62
2022/10/19 06:24:25;;;;;;;0.47;0.47;;;;;;;11.81;66.62;99580.97;5070325;28;20244;-58
2022/10/19 06:26:52;;;;;;;0.40;0.40;;;;;;;12.10;65.13;99576.38;5069913;28;20241;-63
2022/10/19 06:29:19;;;;;;;0.40;0.40;;;;;;;12.50;64.52;99577.84;5070460;28;20581;-63
2022/10/19 06:31:46;;;;;;;0.63;0.63;;;;;;;12.50;63.89;99575.28;5070267;28;20293;-63
2022/10/19 06:34:14;;;;;;;0.97;0.87;;;;;;;12.79;63.10;99576.53;5070354;28;20653;-58
2022/10/19 06:36:41;;;;;;;0.50;0.43;;;;;;;13.20;61.62;99574.38;5069976;28;20202;-58
2022/10/19 06:39:08;;;;;;;0.50;0.50;;;;;;;13.57;60.97;99577.56;5070179;28;20593;-63
2022/10/19 06:41:34;;;;;;;0.90;0.80;;;;;;;13.83;59.38;99580.69;5070056;28;20613;-63
2022/10/19 06:44:01;;;;;;;0.50;0.50;;;;;;;13.85;59.13;99572.88;5070136;28;20206;-58
2022/10/19 06:46:28;;;;;;;0.30;0.30;;;;;;;14.13;57.42;99574.88;5069937;28;20630;-60
2022/10/19 06:48:57;;;;;;;0.43;0.43;;;;;;;13.91;57.31;99582.69;5069873;28;20213;-63
2022/10/19 06:51:27;;;;;;;0.50;0.50;;;;;;;13.42;58.05;99569.28;5069742;28;20219;-58
2022/10/19 06:53:54;;;;;;;1.10;0.80;;;;;;;13.46;57.69;99567.28;5069991;28;20194;-62
2022/10/19 06:56:23;;;;;;;0.50;0.50;;;;;;;13.61;58.88;99552.44;5069589;28;20219;-58
2022/10/19 06:58:50;;;;;;;0.63;0.60;;;;;;;13.97;57.32;99549.59;5070157;28;20195;-58
2022/10/19 07:01:16;;;;;;;0.93;0.70;;;;;;;14.41;56.92;99552.94;5069730;28;20223;-63
2022/10/19 07:03:43;;;;;;;0.70;0.70;;;;;;;15.02;55.51;99552.28;5069856;28;20202;-63
2022/10/19 07:06:13;;;;;;;0.50;0.50;;;;;;;15.25;54.82;99560.66;5069333;28;20226;-63
2022/10/19 07:08:43;;;;;;;1.13;0.60;;;;;;;15.39;53.55;99559.50;5069931;28;20690;-58
2022/10/19 07:11:11;;;;;;;1.30;1.13;;;;;;;15.16;53.26;99554.50;5069629;28;20624;-58
2022/10/19 07:13:38;;;;;;;0.77;0.60;;;;;;;15.12;54.80;99550.53;5069847;28;20211;-58
2022/10/19 07:16:09;;;;;;;1.00;0.97;;;;;;;15.12;54.23;99547.16;5070405;28;20218;-58
2022/10/19 07:18:38;;;;;;;0.97;0.93;;;;;;;15.72;52.33;99545.50;5073755;28;20186;-63
2022/10/19 07:21:06;;;;;;;1.23;0.80;;;;;;;15.95;52.82;99542.69;5073716;28;20222;-58
2022/10/19 07:23:35;;;;;;;0.97;0.90;;;;;;;16.16;51.50;99540.00;5073742;28;20203;-58
2022/10/19 07:26:06;;;;;;;0.67;0.67;;;;;;;16.15;51.40;99540.97;5073726;28;20226;-63
2022/10/19 07:28:34;;;;;;;0.83;0.80;;;;;;;16.14;51.25;99539.31;5073922;28;20207;-58
2022/10/19 07:31:05;;;;;;;0.77;0.70;;;;;;;16.57;51.86;99540.66;5073512;28;20218;-58
2022/10/19 07:33:32;;;;;;;0.93;0.80;;;;;;;16.69;49.23;99531.78;5073687;28;20210;-63
2022/10/19 07:36:00;;;;;;;1.63;1.10;;;;;;;16.55;49.97;99537.38;5073462;28;20366;-64
2022/10/19 07:38:26;;;;;;;1.03;0.93;;;;;;;16.58;50.38;99531.94;5073218;28;20272;-64
2022/10/19 07:41:00;;;;;;;0.40;0.40;;;;;;;16.79;49.89;99532.63;5072791;28;20226;-58
2022/10/19 07:43:29;;;;;;;1.10;0.97;;;;;;;16.91;50.87;99528.94;5073194;28;20199;-63
2022/10/19 07:46:00;;;;;;;1.67;1.10;;;;;;;17.12;49.93;99530.50;5072935;28;20288;-64
2022/10/19 07:48:27;;;;;;;3.03;1.50;;;;;;;17.06;48.96;99531.06;5073034;28;20282;-58
2022/10/19 07:50:54;;;;;;;1.00;0.90;;;;;;;17.29;48.39;99534.09;5072689;28;20524;-63
2022/10/19 07:53:21;;;;;;;0.97;0.60;;;;;;;17.52;48.18;99526.78;5072652;28;20203;-63
2022/10/19 07:55:48;;;;;;;1.50;1.00;;;;;;;17.80;48.09;99530.16;5072600;28;20401;-63
2022/10/19 07:58:15;;;;;;;1.33;1.03;;;;;;;17.93;48.77;99527.22;5073142;28;20198;-64
2022/10/19 08:00:43;;;;;;;1.13;0.70;;;;;;;18.02;46.56;99523.75;5072826;28;20291;-63
2022/10/19 08:03:10;;;;;;;0.90;0.90;;;;;;;17.74;45.90;99521.19;5072628;28;20203;-63
2022/10/19 08:05:37;;;;;;;1.43;1.10;;;;;;;17.58;45.58;99510.69;5072434;28;20391;-63
2022/10/19 08:08:04;;;;;;;1.20;0.97;;;;;;;17.64;46.75;99504.94;5072797;28;20195;-58
2022/10/19 08:10:32;;;;;;;2.57;1.20;;;;;;;17.90;45.56;99509.41;5072517;28;20234;-63
2022/10/19 08:12:59;;;;;;;1.00;0.93;;;;;;;18.21;46.58;99518.44;5072817;28;20204;-61
2022/10/19 08:15:27;;;;;;;1.23;1.00;;;;;;;18.47;45.49;99515.06;5072667;28;20248;-58
2022/10/19 08:17:55;;;;;;;1.60;1.07;;;;;;;18.65;45.99;99515.84;5072613;28;20254;-58
2022/10/19 08:20:22;;;;;;;1.07;0.97;;;;;;;18.78;44.47;99513.66;5072461;28;20234;-58
2022/10/19 08:22:49;;;;;;;1.93;1.07;;;;;;;19.38;45.09;99523.19;5072530;28;20582;-58
2022/10/19 08:25:16;;;;;;;1.83;1.20;;;;;;;19.10;43.44;99512.22;5072327;28;20241;-58
2022/10/19 08:27:43;;;;;;;2.43;1.40;;;;;;;19.06;43.95;99505.72;5071627;28;20674;-58
2022/10/19 08:30:10;;;;;;;1.73;1.30;;;;;;;19.45;44.55;99510.41;5072053;28;20238;-64
2022/10/19 08:32:37;;;;;;;1.77;1.13;;;;;;;20.17;43.57;99512.50;5072350;28;20221;-64
2022/10/19 08:35:06;;;;;;;0.73;0.73;;;;;;;20.65;41.90;99510.88;5072117;28;20220;-64
2022/10/19 08:37:33;;;;;;;1.27;1.10;;;;;;;20.43;40.01;99502.75;5072063;28;20210;-59
2022/10/19 08:40:00;;;;;;;2.20;1.40;;;;;;;20.85;41.38;99501.72;5072361;28;20353;-58
2022/10/19 08:42:32;;;;;;;0.83;0.77;;;;;;;21.20;40.84;99499.66;5071860;28;20211;-58
2022/10/19 08:45:25;;;;;;;1.93;1.30;;;;;;;20.26;40.39;99501.16;5071886;28;20249;-58
2022/10/19 08:48:03;;;;;;;2.47;1.30;;;;;;;21.06;44.50;99496.00;5071678;28;20195;-64
2022/10/19 08:50:37;;;;;;;2.43;1.10;;;;;;;21.16;41.31;99493.19;5071990;28;20232;-58
2022/10/19 08:53:06;;;;;;;1.33;1.23;;;;;;;21.55;40.59;99498.38;5071921;28;20193;-58
2022/10/19 08:55:44;;;;;;;1.07;0.90;;;;;;;20.95;40.93;99494.56;5071969;28;20233;-63
2022/10/19 08:58:39;;;;;;;1.20;1.10;;;;;;;21.30;40.94;99494.25;5071975;28;20203;-61
2022/10/19 09:01:12;;;;;;;2.03;1.33;;;;;;;21.75;38.78;99497.94;5064629;28;20235;-59
2022/10/19 09:03:46;;;;;;;1.90;1.20;;;;;;;21.47;39.93;99494.03;5071534;28;20207;-63
2022/10/19 09:06:23;;;;;;;1.93;1.30;;;;;;;21.15;40.40;99487.19;5071482;28;20612;-63
2022/10/19 09:08:52;;;;;;;1.37;1.17;;;;;;;21.05;40.69;99491.75;5071892;28;20211;-64
2022/10/19 09:11:24;;;;;;;0.77;0.77;;;;;;;20.74;39.14;99483.88;5071011;28;20232;-64
2022/10/19 09:13:58;;;;;;;1.10;1.00;;;;;;;20.84;41.15;99479.31;5071728;28;20198;-63
2022/10/19 09:16:26;;;;;;;2.27;1.20;;;;;;;21.71;39.35;99487.06;5071419;28;20235;-64
2022/10/19 09:18:53;;;;;;;1.03;0.93;;;;;;;21.02;39.07;99479.91;5071250;28;20682;-58
2022/10/19 09:21:24;;;;;;;2.80;1.37;;;;;;;21.69;39.28;99481.22;5070947;28;20222;-59
2022/10/19 09:23:57;;;;;;;1.20;1.10;;;;;;;21.86;37.89;99477.50;5071377;28;20201;-63
2022/10/19 09:26:28;;;;;;;2.30;1.00;;;;;;;22.12;38.05;99473.75;5070736;28;20242;-64
2022/10/19 09:28:58;;;;;;;1.50;1.20;;;;;;;22.45;36.90;99478.69;5071283;28;20700;-58
2022/10/19 09:31:30;;;;;;;1.40;1.10;;;;;;;21.41;37.54;99475.69;5070900;28;20228;-64
2022/10/19 09:34:01;;;;;;;1.50;1.07;;;;;;;21.82;37.25;99473.66;5071058;28;20219;-64
2022/10/19 09:36:37;;;;;;;0.87;0.80;;;;;;;22.64;37.50;99478.16;5070876;28;20201;-63
2022/10/19 09:39:04;;;;;;;1.80;0.82;;;;;;;23.09;36.76;99465.91;5070511;28;20256;-64
2022/10/19 09:41:32;;;;;;;1.00;0.90;;;;;;;23.05;35.15;99472.50;5070098;28;20240;-64
2022/10/19 09:43:59;;;;;;;0.77;0.77;;;;;;;23.16;34.27;99466.81;5070942;28;20206;-64
2022/10/19 09:46:41;;;;;;;0.80;0.80;;;;;;;23.70;35.49;99474.25;5070292;28;20238;-63
2022/10/19 09:49:08;;;;;;;1.13;0.98;;;;;;;23.44;34.58;99466.13;5071023;28;20202;-58
2022/10/19 09:51:50;;;;;;;0.70;0.70;;;;;;;23.39;35.11;99468.50;5070411;28;20203;-61
2022/10/19 09:54:33;;;;;;;0.77;0.65;;;;;;;23.28;33.13;99460.13;5071057;28;20268;-58
2022/10/19 09:57:00;;;;;;;1.15;0.82;;;;;;;22.82;34.08;99449.91;5070719;28;20206;-58
2022/10/19 09:59:30;;;;;;;1.63;0.98;;;;;;;23.03;35.69;99446.59;5070670;28;20225;-58
2022/10/19 10:02:10;;;;;;;0.80;0.77;;;;;;;23.05;34.88;99449.84;5070348;28;20199;-64
2022/10/19 10:04:37;;;;;;;0.80;0.77;;;;;;;23.11;34.63;99448.31;5070388;28;20219;-64
2022/10/19 10:07:05;;;;;;;1.83;1.15;;;;;;;23.40;35.07;99454.44;5070524;28;20223;-58
2022/10/19 10:09:43;;;;;;;2.33;1.20;;;;;;;23.77;35.56;99444.81;5070443;28;20223;-64
2022/10/19 10:12:13;;;;;;;1.10;1.00;;;;;;;23.67;34.27;99438.03;5070075;28;20256;-64
2022/10/19 10:14:41;;;;;;;1.20;1.02;;;;;;;23.58;33.96;99439.16;5070098;28;20227;-64
2022/10/19 10:17:15;;;;;;;0.85;0.82;;;;;;;22.89;35.24;99433.56;5070139;28;20210;-58
2022/10/19 10:19:51;;;;;;;0.68;0.68;;;;;;;23.37;34.65;99436.53;5070136;28;20225;-58
2022/10/19 10:22:28;;;;;;;1.40;0.93;;;;;;;23.61;35.12;99433.56;5070300;28;20209;-64
2022/10/19 10:24:56;;;;;;;0.60;0.60;;;;;;;23.49;34.57;99430.63;5070207;28;20222;-58
2022/10/19 10:27:31;;;;;;;1.38;1.00;;;;;;;23.01;34.45;99427.72;5069883;28;20245;-64
2022/10/19 10:29:58;;;;;;;1.35;1.13;;;;;;;22.92;34.14;99425.34;5070044;28;20226;-63
2022/10/19 10:32:27;;;;;;;1.55;1.10;;;;;;;23.14;34.18;99421.84;5069727;28;20690;-64
2022/10/19 10:35:01;;;;;;;0.88;0.77;;;;;;;23.56;33.92;99420.28;5069940;28;20222;-58
2022/10/19 10:37:37;;;;;;;1.08;0.90;;;;;;;23.52;33.66;99419.03;5070192;28;20195;-64
2022/10/19 10:40:06;;;;;;;0.90;0.80;;;;;;;23.67;33.83;99416.34;5069732;28;20222;-58
2022/10/19 10:42:40;;;;;;;0.82;0.73;;;;;;;23.84;33.53;99414.31;5070120;28;20222;-58
2022/10/19 10:45:17;;;;;;;1.60;1.17;;;;;;;24.21;33.64;99397.50;5069939;28;20226;-63
2022/10/19 10:47:47;;;;;;;1.20;0.90;;;;;;;24.10;34.31;99398.84;5069721;28;20241;-63
2022/10/19 10:50:20;;;;;;;0.80;0.80;;;;;;;24.27;33.84;99381.06;5069770;28;20702;-58
2022/10/19 10:52:59;;;;;;;1.73;1.35;;;;;;;24.09;32.92;99389.41;5069460;28;20203;-63
2022/10/19 10:55:27;;;;;;;1.10;1.00;;;;;;;23.69;32.72;99381.22;5069986;28;20244;-64
2022/10/19 10:58:05;;;;;;;0.77;0.77;;;;;;;23.33;33.63;99385.72;5069536;28;20210;-58
2022/10/19 11:00:34;;;;;;;1.38;0.77;;;;;;;23.03;34.27;99388.41;5069641;28;20597;-63
2022/10/19 11:03:07;;;;;;;0.82;0.73;;;;;;;23.24;33.79;99396.28;5069780;28;20194;-58
2022/10/19 11:05:38;;;;;;;0.88;0.80;;;;;;;23.52;32.90;99385.09;5069769;28;20223;-63
2022/10/19 11:08:18;;;;;;;1.25;0.95;;;;;;;23.37;33.43;99379.16;5069840;28;20301;-58
2022/10/19 11:10:51;;;;;;;1.13;1.02;;;;;;;23.81;32.61;99375.53;5069343;28;20284;-64
2022/10/19 11:13:27;;;;;;;0.95;0.68;;;;;;;24.22;33.66;99361.72;5068670;28;20194;-58
2022/10/19 11:15:58;;;;;;;0.80;0.70;;;;;;;24.34;31.95;99365.41;5069407;28;20222;-59
2022/10/19 11:18:30;;;;;;;0.95;0.88;;;;;;;24.17;31.92;99365.75;5069580;28;20191;-64
2022/10/19 11:21:05;;;;;;;0.93;0.85;;;;;;;24.23;33.16;99358.09;5069265;28;20358;-58
2022/10/19 11:24:00;;;;;;;1.90;1.30;;;;;;;24.13;31.38;99354.03;5069693;28;20194;-64
2022/10/19 11:26:39;;;;;;;2.65;1.10;;;;;;;23.75;32.46;99368.47;5069204;28;20223;-63
2022/10/19 11:29:24;;;;;;;2.78;1.00;;;;;;;23.89;31.84;99355.31;5069618;28;20378;-64
2022/10/19 11:31:54;;;;;;;0.93;0.82;;;;;;;23.82;31.59;99362.25;5069294;28;20682;-64
2022/10/19 11:34:37;;;;;;;1.08;0.98;;;;;;;24.04;30.71;99359.63;5069694;28;20659;-58
2022/10/19 11:37:17;;;;;;;1.17;0.80;;;;;;;24.11;31.77;99350.81;5069746;28;20205;-58
2022/10/19 11:39:59;;;;;;;1.63;1.23;;;;;;;23.88;32.32;99350.25;5069826;28;20726;-58
2022/10/19 11:42:42;;;;;;;1.23;0.93;;;;;;;23.63;32.13;99342.81;5069425;28;20389;-63
2022/10/19 11:45:18;;;;;;;1.10;1.00;;;;;;;23.52;32.29;99338.13;5069544;28;20226;-64
2022/10/19 11:48:13;;;;;;;0.85;0.80;;;;;;;23.41;33.08;99336.00;5069111;28;20230;-64
2022/10/19 11:50:48;;;;;;;1.35;1.00;;;;;;;23.30;33.31;99326.91;5069932;28;20226;-58